Terminal Aerodrome Forecast
Issued by NWS

Home | Current Version | Previous Version | Text Only | Print | Product List | Glossary On
Versions: 1 2 3 4 5 6 7 8 9 10 11 12 13 14 15 16 17 18 19 20 21 22 23 24 25 26 27 28 29 30 31 32 33 34 35
000
FTUS41 KGYX 270523
TAFMHT
TAF
KMHT 270523Z 2706/2806 34005KT 6SM -RA BR OVC015
     FM270700 35005KT 5SM -SHRA BR OVC025
     FM271200 VRB03KT P6SM BKN035
     FM271900 33004KT P6SM OVC050
     FM280500 34006KT 6SM -SHSN OVC035=

USA.gov is the U.S. government's official web portal to all federal, state and local government web resources and services.